sensor_id;sensor_type;location;lat;lon;timestamp;pressure;altitude;pressure_sealevel;temperature;humidity
71791;BME280;59638;52.126;5.434;2023-05-22T00:01:57;101695.50;;;14.84;100.00
71791;BME280;59638;52.126;5.434;2023-05-22T00:04:24;101694.53;;;14.85;100.00
71791;BME280;59638;52.126;5.434;2023-05-22T00:06:55;101694.81;;;14.82;100.00
71791;BME280;59638;52.126;5.434;2023-05-22T00:09:24;101693.31;;;14.80;100.00
71791;BME280;59638;52.126;5.434;2023-05-22T00:11:51;101684.50;;;14.79;100.00
71791;BME280;59638;52.126;5.434;2023-05-22T00:14:18;101681.13;;;14.77;100.00
71791;BME280;59638;52.126;5.434;2023-05-22T00:16:44;101684.09;;;14.74;100.00
71791;BME280;59638;52.126;5.434;2023-05-22T00:19:13;101684.25;;;14.73;100.00
71791;BME280;59638;52.126;5.434;2023-05-22T00:21:42;101675.53;;;14.71;100.00
71791;BME280;59638;52.126;5.434;2023-05-22T00:24:08;101671.38;;;14.68;100.00
71791;BME280;59638;52.126;5.434;2023-05-22T00:26:35;101652.66;;;14.60;100.00
71791;BME280;59638;52.126;5.434;2023-05-22T00:29:01;101656.28;;;14.59;100.00
71791;BME280;59638;52.126;5.434;2023-05-22T00:31:30;101660.91;;;14.57;100.00
71791;BME280;59638;52.126;5.434;2023-05-22T00:33:58;101653.34;;;14.52;100.00
71791;BME280;59638;52.126;5.434;2023-05-22T00:36:24;101651.56;;;14.53;100.00
71791;BME280;59638;52.126;5.434;2023-05-22T00:38:51;101652.94;;;14.57;100.00
71791;BME280;59638;52.126;5.434;2023-05-22T00:41:17;101654.59;;;14.58;100.00
71791;BME280;59638;52.126;5.434;2023-05-22T00:43:44;101651.53;;;14.62;100.00
71791;BME280;59638;52.126;5.434;2023-05-22T00:46:10;101646.06;;;14.64;100.00
71791;BME280;59638;52.126;5.434;2023-05-22T00:48:38;101647.72;;;14.65;100.00
71791;BME280;59638;52.126;5.434;2023-05-22T00:51:05;101644.13;;;14.66;100.00
71791;BME280;59638;52.126;5.434;2023-05-22T00:53:32;101644.78;;;14.68;100.00
71791;BME280;59638;52.126;5.434;2023-05-22T00:55:59;101644.78;;;14.68;100.00
71791;BME280;59638;52.126;5.434;2023-05-22T00:58:26;101640.16;;;14.70;100.00
71791;BME280;59638;52.126;5.434;2023-05-22T01:00:53;101637.66;;;14.68;100.00
71791;BME280;59638;52.126;5.434;2023-05-22T01:03:21;101630.53;;;14.69;100.00
71791;BME280;59638;52.126;5.434;2023-05-22T01:05:53;101627.88;;;14.69;100.00
71791;BME280;59638;52.126;5.434;2023-05-22T01:08:19;101625.22;;;14.69;100.00
71791;BME280;59638;52.126;5.434;2023-05-22T01:10:51;101626.34;;;14.66;100.00
71791;BME280;59638;52.126;5.434;2023-05-22T01:13:35;101622.84;;;14.66;100.00
71791;BME280;59638;52.126;5.434;2023-05-22T01:16:28;101625.50;;;14.66;100.00
71791;BME280;59638;52.126;5.434;2023-05-22T01:21:59;101616.00;;;14.63;100.00
71791;BME280;59638;52.126;5.434;2023-05-22T01:30:40;101607.75;;;14.57;100.00
71791;BME280;59638;52.126;5.434;2023-05-22T01:33:08;101608.06;;;14.54;100.00
71791;BME280;59638;52.126;5.434;2023-05-22T01:35:38;101619.94;;;14.50;100.00
71791;BME280;59638;52.126;5.434;2023-05-22T01:38:06;101622.59;;;14.50;100.00
71791;BME280;59638;52.126;5.434;2023-05-22T01:40:34;101617.44;;;14.48;100.00
71791;BME280;59638;52.126;5.434;2023-05-22T01:43:01;101613.22;;;14.46;100.00
71791;BME280;59638;52.126;5.434;2023-05-22T01:45:28;101610.16;;;14.40;100.00
71791;BME280;59638;52.126;5.434;2023-05-22T01:47:57;101607.09;;;14.35;100.00
71791;BME280;59638;52.126;5.434;2023-05-22T01:50:24;101600.69;;;14.28;100.00
71791;BME280;59638;52.126;5.434;2023-05-22T01:55:41;101594.13;;;14.23;100.00
71791;BME280;59638;52.126;5.434;2023-05-22T02:00:55;101590.22;;;14.17;100.00
71791;BME280;59638;52.126;5.434;2023-05-22T02:03:29;101584.50;;;14.12;100.00
71791;BME280;59638;52.126;5.434;2023-05-22T02:05:58;101581.16;;;14.10;100.00
71791;BME280;59638;52.126;5.434;2023-05-22T02:08:26;101572.78;;;14.05;100.00
71791;BME280;59638;52.126;5.434;2023-05-22T02:10:55;101578.66;;;13.99;100.00
71791;BME280;59638;52.126;5.434;2023-05-22T02:13:22;101587.75;;;13.96;100.00
71791;BME280;59638;52.126;5.434;2023-05-22T02:15:49;101577.53;;;13.92;100.00
71791;BME280;59638;52.126;5.434;2023-05-22T02:18:16;101578.09;;;13.85;100.00
71791;BME280;59638;52.126;5.434;2023-05-22T02:20:44;101578.41;;;13.82;100.00
71791;BME280;59638;52.126;5.434;2023-05-22T02:23:11;101582.44;;;13.86;100.00
71791;BME280;59638;52.126;5.434;2023-05-22T02:25:37;101577.56;;;13.82;100.00
71791;BME280;59638;52.126;5.434;2023-05-22T02:28:04;101575.31;;;13.77;100.00
71791;BME280;59638;52.126;5.434;2023-05-22T02:30:30;101566.38;;;13.78;100.00
71791;BME280;59638;52.126;5.434;2023-05-22T02:32:57;101568.34;;;13.76;100.00
71791;BME280;59638;52.126;5.434;2023-05-22T02:35:25;101574.78;;;13.74;100.00
71791;BME280;59638;52.126;5.434;2023-05-22T02:37:51;101568.50;;;13.75;100.00
71791;BME280;59638;52.126;5.434;2023-05-22T02:40:18;101579.50;;;13.70;100.00
71791;BME280;59638;52.126;5.434;2023-05-22T02:42:45;101578.81;;;13.68;100.00
71791;BME280;59638;52.126;5.434;2023-05-22T02:45:11;101568.06;;;13.70;100.00
71791;BME280;59638;52.126;5.434;2023-05-22T02:47:38;101575.19;;;13.69;100.00
71791;BME280;59638;52.126;5.434;2023-05-22T02:50:04;101570.56;;;13.71;100.00
71791;BME280;59638;52.126;5.434;2023-05-22T02:52:31;101560.66;;;13.73;100.00
71791;BME280;59638;52.126;5.434;2023-05-22T02:54:58;101559.81;;;13.73;100.00
71791;BME280;59638;52.126;5.434;2023-05-22T02:57:24;101558.28;;;13.70;100.00
71791;BME280;59638;52.126;5.434;2023-05-22T02:59:51;101561.25;;;13.67;100.00
71791;BME280;59638;52.126;5.434;2023-05-22T03:02:17;101559.41;;;13.58;100.00
71791;BME280;59638;52.126;5.434;2023-05-22T03:04:44;101559.97;;;13.52;100.00
71791;BME280;59638;52.126;5.434;2023-05-22T03:07:11;101556.63;;;13.50;100.00
71791;BME280;59638;52.126;5.434;2023-05-22T03:09:38;101561.50;;;13.45;100.00
71791;BME280;59638;52.126;5.434;2023-05-22T03:12:04;101561.25;;;13.48;100.00
71791;BME280;59638;52.126;5.434;2023-05-22T03:14:31;101558.97;;;13.53;100.00
71791;BME280;59638;52.126;5.434;2023-05-22T03:16:57;101554.09;;;13.58;100.00
71791;BME280;59638;52.126;5.434;2023-05-22T03:19:24;101552.41;;;13.67;100.00
71791;BME280;59638;52.126;5.434;2023-05-22T03:21:50;101552.44;;;13.76;100.00
71791;BME280;59638;52.126;5.434;2023-05-22T03:24:17;101558.16;;;13.81;100.00
71791;BME280;59638;52.126;5.434;2023-05-22T03:26:43;101554.94;;;13.87;100.00
71791;BME280;59638;52.126;5.434;2023-05-22T03:29:10;101550.47;;;13.88;100.00
71791;BME280;59638;52.126;5.434;2023-05-22T03:31:36;101551.31;;;13.88;100.00
71791;BME280;59638;52.126;5.434;2023-05-22T03:34:03;101549.31;;;13.91;100.00
71791;BME280;59638;52.126;5.434;2023-05-22T03:36:31;101551.00;;;13.92;100.00
71791;BME280;59638;52.126;5.434;2023-05-22T03:39:02;101554.94;;;13.87;100.00
71791;BME280;59638;52.126;5.434;2023-05-22T03:41:28;101557.72;;;13.86;100.00
71791;BME280;59638;52.126;5.434;2023-05-22T03:43:55;101556.75;;;13.77;100.00
71791;BME280;59638;52.126;5.434;2023-05-22T03:46:22;101563.31;;;13.73;100.00
71791;BME280;59638;52.126;5.434;2023-05-22T03:48:49;101565.00;;;13.74;100.00
71791;BME280;59638;52.126;5.434;2023-05-22T03:51:15;101564.56;;;13.69;100.00
71791;BME280;59638;52.126;5.434;2023-05-22T03:53:45;101559.69;;;13.65;100.00
71791;BME280;59638;52.126;5.434;2023-05-22T03:56:11;101563.16;;;13.65;100.00
71791;BME280;59638;52.126;5.434;2023-05-22T03:58:38;101561.25;;;13.67;100.00
71791;BME280;59638;52.126;5.434;2023-05-22T04:01:04;101558.28;;;13.70;100.00
71791;BME280;59638;52.126;5.434;2023-05-22T04:03:31;101553.66;;;13.72;100.00
71791;BME280;59638;52.126;5.434;2023-05-22T04:05:57;101559.69;;;13.74;100.00
71791;BME280;59638;52.126;5.434;2023-05-22T04:08:23;101561.38;;;13.75;100.00
71791;BME280;59638;52.126;5.434;2023-05-22T04:10:50;101563.03;;;13.76;100.00
71791;BME280;59638;52.126;5.434;2023-05-22T04:13:19;101556.59;;;13.79;100.00
71791;BME280;59638;52.126;5.434;2023-05-22T04:15:46;101550.47;;;13.78;100.00
71791;BME280;59638;52.126;5.434;2023-05-22T04:18:13;101559.13;;;13.80;100.00
71791;BME280;59638;52.126;5.434;2023-05-22T04:20:39;101566.38;;;13.78;100.00
71791;BME280;59638;52.126;5.434;2023-05-22T04:23:07;101561.91;;;13.79;100.00
71791;BME280;59638;52.126;5.434;2023-05-22T04:25:33;101557.72;;;13.76;100.00
71791;BME280;59638;52.126;5.434;2023-05-22T04:28:01;101565.69;;;13.76;100.00
71791;BME280;59638;52.126;5.434;2023-05-22T04:30:32;101578.66;;;13.79;100.00
71791;BME280;59638;52.126;5.434;2023-05-22T04:33:03;101588.72;;;13.85;100.00
71791;BME280;59638;52.126;5.434;2023-05-22T04:35:30;101593.47;;;13.92;100.00
71791;BME280;59638;52.126;5.434;2023-05-22T04:37:57;101601.59;;;14.00;100.00
71791;BME280;59638;52.126;5.434;2023-05-22T04:40:27;101595.00;;;14.04;100.00
71791;BME280;59638;52.126;5.434;2023-05-22T04:42:55;101604.38;;;14.08;100.00
71791;BME280;59638;52.126;5.434;2023-05-22T04:45:26;101599.59;;;14.11;100.00
71791;BME280;59638;52.126;5.434;2023-05-22T04:47:54;101607.00;;;14.18;100.00
71791;BME280;59638;52.126;5.434;2023-05-22T04:50:21;101611.19;;;14.20;100.00
71791;BME280;59638;52.126;5.434;2023-05-22T04:52:49;101610.75;;;14.25;100.00
71791;BME280;59638;52.126;5.434;2023-05-22T04:55:15;101628.22;;;14.27;100.00
71791;BME280;59638;52.126;5.434;2023-05-22T04:57:42;101624.28;;;14.31;100.00
71791;BME280;59638;52.126;5.434;2023-05-22T05:00:11;101619.97;;;14.30;100.00
71791;BME280;59638;52.126;5.434;2023-05-22T05:02:39;101619.69;;;14.33;100.00
71791;BME280;59638;52.126;5.434;2023-05-22T05:05:06;101621.06;;;14.37;100.00
71791;BME280;59638;52.126;5.434;2023-05-22T05:07:36;101624.13;;;14.42;100.00
71791;BME280;59638;52.126;5.434;2023-05-22T05:10:03;101627.47;;;14.45;100.00
71791;BME280;59638;52.126;5.434;2023-05-22T05:12:29;101622.16;;;14.45;100.00
71791;BME280;59638;52.126;5.434;2023-05-22T05:14:56;101628.59;;;14.52;100.00
71791;BME280;59638;52.126;5.434;2023-05-22T05:17:22;101618.81;;;14.62;100.00
71791;BME280;59638;52.126;5.434;2023-05-22T05:19:49;101622.97;;;14.74;100.00
71791;BME280;59638;52.126;5.434;2023-05-22T05:22:15;101615.97;;;14.73;100.00
71791;BME280;59638;52.126;5.434;2023-05-22T05:24:42;101619.91;;;14.69;100.00
71791;BME280;59638;52.126;5.434;2023-05-22T05:27:08;101616.06;;;14.81;100.00
71791;BME280;59638;52.126;5.434;2023-05-22T05:29:35;101605.53;;;14.89;100.00
71791;BME280;59638;52.126;5.434;2023-05-22T05:32:02;101616.97;;;15.00;100.00
71791;BME280;59638;52.126;5.434;2023-05-22T05:34:29;101609.69;;;15.02;100.00
71791;BME280;59638;52.126;5.434;2023-05-22T05:36:55;101615.50;;;15.15;100.00
71791;BME280;59638;52.126;5.434;2023-05-22T05:39:22;101609.84;;;15.18;100.00
71791;BME280;59638;52.126;5.434;2023-05-22T05:41:49;101607.59;;;15.23;100.00
71791;BME280;59638;52.126;5.434;2023-05-22T05:44:15;101609.22;;;15.34;100.00
71791;BME280;59638;52.126;5.434;2023-05-22T05:46:41;101611.41;;;15.38;100.00
71791;BME280;59638;52.126;5.434;2023-05-22T05:49:09;101607.78;;;15.39;100.00
71791;BME280;59638;52.126;5.434;2023-05-22T05:51:37;101610.81;;;15.44;100.00
71791;BME280;59638;52.126;5.434;2023-05-22T05:54:04;101605.53;;;15.62;100.00
71791;BME280;59638;52.126;5.434;2023-05-22T05:56:30;101615.41;;;15.70;100.00
71791;BME280;59638;52.126;5.434;2023-05-22T05:58:57;101608.66;;;15.75;100.00
71791;BME280;59638;52.126;5.434;2023-05-22T06:01:25;101609.50;;;15.76;100.00
71791;BME280;59638;52.126;5.434;2023-05-22T06:03:52;101600.72;;;15.84;100.00
71791;BME280;59638;52.126;5.434;2023-05-22T06:06:19;101602.44;;;15.85;100.00
71791;BME280;59638;52.126;5.434;2023-05-22T06:08:45;101602.28;;;15.86;100.00
71791;BME280;59638;52.126;5.434;2023-05-22T06:11:12;101603.63;;;15.90;100.00
71791;BME280;59638;52.126;5.434;2023-05-22T06:13:38;101599.72;;;16.02;100.00
71791;BME280;59638;52.126;5.434;2023-05-22T06:16:05;101598.19;;;16.18;100.00
71791;BME280;59638;52.126;5.434;2023-05-22T06:18:32;101597.53;;;16.24;100.00
71791;BME280;59638;52.126;5.434;2023-05-22T06:20:58;101596.66;;;16.41;100.00
71791;BME280;59638;52.126;5.434;2023-05-22T06:23:25;101600.28;;;16.58;100.00
71791;BME280;59638;52.126;5.434;2023-05-22T06:25:51;101600.97;;;16.68;100.00
71791;BME280;59638;52.126;5.434;2023-05-22T06:28:19;101601.88;;;16.77;100.00
71791;BME280;59638;52.126;5.434;2023-05-22T06:30:45;101615.09;;;16.87;100.00
71791;BME280;59638;52.126;5.434;2023-05-22T06:33:12;101614.31;;;17.02;100.00
71791;BME280;59638;52.126;5.434;2023-05-22T06:35:39;101612.69;;;17.09;100.00
71791;BME280;59638;52.126;5.434;2023-05-22T06:38:06;101615.69;;;17.06;100.00
71791;BME280;59638;52.126;5.434;2023-05-22T06:40:32;101616.75;;;17.30;100.00
71791;BME280;59638;52.126;5.434;2023-05-22T06:42:59;101612.81;;;17.50;100.00
71791;BME280;59638;52.126;5.434;2023-05-22T06:45:26;101618.00;;;17.60;100.00
71791;BME280;59638;52.126;5.434;2023-05-22T06:47:53;101631.06;;;17.71;100.00
71791;BME280;59638;52.126;5.434;2023-05-22T06:50:20;101622.88;;;17.73;100.00
71791;BME280;59638;52.126;5.434;2023-05-22T06:52:47;101617.56;;;17.97;100.00
71791;BME280;59638;52.126;5.434;2023-05-22T06:55:14;101626.72;;;18.11;100.00
71791;BME280;59638;52.126;5.434;2023-05-22T06:57:40;101625.91;;;18.10;100.00
71791;BME280;59638;52.126;5.434;2023-05-22T07:00:07;101624.22;;;18.17;100.00
71791;BME280;59638;52.126;5.434;2023-05-22T07:02:37;101629.66;;;18.65;100.00
71791;BME280;59638;52.126;5.434;2023-05-22T07:05:04;101623.03;;;19.00;100.00
71791;BME280;59638;52.126;5.434;2023-05-22T07:07:30;101632.44;;;18.96;100.00
71791;BME280;59638;52.126;5.434;2023-05-22T07:09:57;101632.66;;;19.17;100.00
71791;BME280;59638;52.126;5.434;2023-05-22T07:12:23;101630.94;;;19.24;100.00
71791;BME280;59638;52.126;5.434;2023-05-22T07:14:52;101633.09;;;19.29;100.00
71791;BME280;59638;52.126;5.434;2023-05-22T07:17:19;101642.84;;;19.61;100.00
71791;BME280;59638;52.126;5.434;2023-05-22T07:19:47;101637.47;;;19.61;100.00
71791;BME280;59638;52.126;5.434;2023-05-22T07:22:14;101635.44;;;20.09;100.00
71791;BME280;59638;52.126;5.434;2023-05-22T07:24:40;101633.16;;;21.24;100.00
71791;BME280;59638;52.126;5.434;2023-05-22T07:27:07;101631.41;;;21.67;100.00
71791;BME280;59638;52.126;5.434;2023-05-22T07:29:34;101632.88;;;22.13;100.00
71791;BME280;59638;52.126;5.434;2023-05-22T07:32:01;101636.41;;;22.76;100.00
71791;BME280;59638;52.126;5.434;2023-05-22T07:34:28;101630.56;;;23.62;100.00
71791;BME280;59638;52.126;5.434;2023-05-22T07:37:05;101640.56;;;23.81;100.00
71791;BME280;59638;52.126;5.434;2023-05-22T07:39:31;101639.72;;;23.74;100.00
71791;BME280;59638;52.126;5.434;2023-05-22T07:41:58;101633.28;;;23.62;100.00
71791;BME280;59638;52.126;5.434;2023-05-22T07:44:26;101633.31;;;24.21;100.00
71791;BME280;59638;52.126;5.434;2023-05-22T07:46:53;101627.09;;;24.07;100.00
71791;BME280;59638;52.126;5.434;2023-05-22T07:49:20;101631.66;;;24.33;100.00
71791;BME280;59638;52.126;5.434;2023-05-22T07:51:48;101628.81;;;24.93;100.00
71791;BME280;59638;52.126;5.434;2023-05-22T07:54:15;101642.91;;;25.53;99.09
71791;BME280;59638;52.126;5.434;2023-05-22T07:56:41;101642.84;;;25.21;97.18
71791;BME280;59638;52.126;5.434;2023-05-22T07:59:08;101643.69;;;25.22;91.10
71791;BME280;59638;52.126;5.434;2023-05-22T08:01:38;101635.28;;;25.43;93.26
71791;BME280;59638;52.126;5.434;2023-05-22T08:04:05;101629.53;;;26.21;89.15
71791;BME280;59638;52.126;5.434;2023-05-22T08:06:32;101643.47;;;26.68;84.86
71791;BME280;59638;52.126;5.434;2023-05-22T08:09:00;101641.50;;;27.12;78.12
71791;BME280;59638;52.126;5.434;2023-05-22T08:11:27;101640.00;;;26.79;73.71
71791;BME280;59638;52.126;5.434;2023-05-22T08:13:54;101650.09;;;27.09;75.25
71791;BME280;59638;52.126;5.434;2023-05-22T08:16:21;101648.94;;;27.47;68.11
71791;BME280;59638;52.126;5.434;2023-05-22T08:18:48;101645.06;;;27.43;66.71
71791;BME280;59638;52.126;5.434;2023-05-22T08:21:15;101649.81;;;27.89;66.27
71791;BME280;59638;52.126;5.434;2023-05-22T08:23:41;101653.50;;;28.88;60.79
71791;BME280;59638;52.126;5.434;2023-05-22T08:26:08;101651.31;;;28.38;62.55
71791;BME280;59638;52.126;5.434;2023-05-22T08:28:34;101646.91;;;28.14;64.11
71791;BME280;59638;52.126;5.434;2023-05-22T08:31:02;101648.00;;;28.60;60.54
71791;BME280;59638;52.126;5.434;2023-05-22T08:33:28;101645.03;;;28.73;62.91
71791;BME280;59638;52.126;5.434;2023-05-22T08:35:55;101644.13;;;29.19;59.72
71791;BME280;59638;52.126;5.434;2023-05-22T08:38:21;101634.53;;;29.45;56.80
71791;BME280;59638;52.126;5.434;2023-05-22T08:40:48;101641.13;;;28.22;61.56
71791;BME280;59638;52.126;5.434;2023-05-22T08:43:15;101642.03;;;27.92;61.24
71791;BME280;59638;52.126;5.434;2023-05-22T08:45:42;101634.75;;;28.28;62.35
71791;BME280;59638;52.126;5.434;2023-05-22T08:48:12;101631.66;;;28.95;60.48
71791;BME280;59638;52.126;5.434;2023-05-22T08:50:41;101630.25;;;29.78;55.37
71791;BME280;59638;52.126;5.434;2023-05-22T08:53:10;101622.09;;;30.12;54.91
71791;BME280;59638;52.126;5.434;2023-05-22T08:55:38;101636.31;;;30.52;51.95
71791;BME280;59638;52.126;5.434;2023-05-22T08:58:05;101628.22;;;30.57;52.17
71791;BME280;59638;52.126;5.434;2023-05-22T09:00:32;101630.41;;;30.39;52.81
71791;BME280;59638;52.126;5.434;2023-05-22T09:02:58;101626.69;;;29.61;54.50
71791;BME280;59638;52.126;5.434;2023-05-22T09:05:25;101633.09;;;29.55;54.09
71791;BME280;59638;52.126;5.434;2023-05-22T09:07:55;101634.97;;;30.72;54.32
71791;BME280;59638;52.126;5.434;2023-05-22T09:10:30;101621.97;;;31.82;48.18
71791;BME280;59638;52.126;5.434;2023-05-22T09:13:04;101625.78;;;30.78;51.54
71791;BME280;59638;52.126;5.434;2023-05-22T09:15:33;101625.25;;;30.81;48.12
71791;BME280;59638;52.126;5.434;2023-05-22T09:18:04;101619.84;;;31.57;49.11
71791;BME280;59638;52.126;5.434;2023-05-22T09:20:35;101623.00;;;31.76;48.28
71791;BME280;59638;52.126;5.434;2023-05-22T09:23:10;101622.19;;;31.43;48.56
71791;BME280;59638;52.126;5.434;2023-05-22T09:25:37;101612.19;;;31.27;46.94
71791;BME280;59638;52.126;5.434;2023-05-22T09:28:03;101612.56;;;30.70;49.64
71791;BME280;59638;52.126;5.434;2023-05-22T09:30:33;101603.59;;;30.91;50.32
71791;BME280;59638;52.126;5.434;2023-05-22T09:32:59;101609.63;;;30.71;50.74
71791;BME280;59638;52.126;5.434;2023-05-22T09:35:26;101605.00;;;29.66;50.28
71791;BME280;59638;52.126;5.434;2023-05-22T09:37:55;101607.13;;;29.97;57.33
71791;BME280;59638;52.126;5.434;2023-05-22T09:40:26;101602.06;;;31.54;48.33
71791;BME280;59638;52.126;5.434;2023-05-22T09:42:52;101599.56;;;32.59;48.17
71791;BME280;59638;52.126;5.434;2023-05-22T09:45:20;101596.00;;;33.47;44.52
71791;BME280;59638;52.126;5.434;2023-05-22T09:47:50;101598.75;;;33.98;42.63
71791;BME280;59638;52.126;5.434;2023-05-22T09:50:16;101598.19;;;33.45;41.10
71791;BME280;59638;52.126;5.434;2023-05-22T09:52:44;101603.22;;;31.31;48.33
71791;BME280;59638;52.126;5.434;2023-05-22T09:55:12;101608.69;;;30.66;45.79
71791;BME280;59638;52.126;5.434;2023-05-22T09:57:43;101597.47;;;30.62;51.66
71791;BME280;59638;52.126;5.434;2023-05-22T10:00:11;101595.41;;;30.91;44.62
71791;BME280;59638;52.126;5.434;2023-05-22T10:02:42;101589.38;;;31.38;45.24
71791;BME280;59638;52.126;5.434;2023-05-22T10:05:10;101598.25;;;32.25;41.10
71791;BME280;59638;52.126;5.434;2023-05-22T10:07:46;101595.94;;;33.11;43.11
71791;BME280;59638;52.126;5.434;2023-05-22T10:10:17;101593.25;;;33.67;37.79
71791;BME280;59638;52.126;5.434;2023-05-22T10:12:49;101592.06;;;32.92;43.29
71791;BME280;59638;52.126;5.434;2023-05-22T10:15:16;101597.00;;;33.05;42.05
71791;BME280;59638;52.126;5.434;2023-05-22T10:17:44;101603.78;;;32.35;39.77
71791;BME280;59638;52.126;5.434;2023-05-22T10:20:11;101603.00;;;31.97;40.58
71791;BME280;59638;52.126;5.434;2023-05-22T10:22:38;101593.63;;;32.25;41.15
71791;BME280;59638;52.126;5.434;2023-05-22T10:25:05;101598.69;;;31.74;44.19
71791;BME280;59638;52.126;5.434;2023-05-22T10:27:35;101592.25;;;31.26;44.72
71791;BME280;59638;52.126;5.434;2023-05-22T10:33:08;101594.38;;;27.85;55.06
71791;BME280;59638;52.126;5.434;2023-05-22T10:36:01;101586.63;;;29.44;53.90
71791;BME280;59638;52.126;5.434;2023-05-22T10:38:53;101580.84;;;30.42;52.03
71791;BME280;59638;52.126;5.434;2023-05-22T10:41:29;101585.69;;;30.01;47.22
71791;BME280;59638;52.126;5.434;2023-05-22T10:43:56;101579.63;;;29.48;50.58
71791;BME280;59638;52.126;5.434;2023-05-22T10:46:23;101572.91;;;31.28;44.60
71791;BME280;59638;52.126;5.434;2023-05-22T10:48:52;101579.34;;;31.49;41.84
71791;BME280;59638;52.126;5.434;2023-05-22T10:51:20;101577.22;;;30.36;43.70
71791;BME280;59638;52.126;5.434;2023-05-22T10:53:57;101570.09;;;31.23;45.51
71791;BME280;59638;52.126;5.434;2023-05-22T10:56:31;101580.44;;;31.48;44.54
71791;BME280;59638;52.126;5.434;2023-05-22T10:59:00;101583.75;;;31.82;43.33
71791;BME280;59638;52.126;5.434;2023-05-22T11:01:34;101580.38;;;32.07;40.65
71791;BME280;59638;52.126;5.434;2023-05-22T11:06:48;101583.84;;;31.60;41.42
71791;BME280;59638;52.126;5.434;2023-05-22T11:09:28;101571.91;;;30.90;43.51
71791;BME280;59638;52.126;5.434;2023-05-22T11:15:04;101573.94;;;29.33;48.97
71791;BME280;59638;52.126;5.434;2023-05-22T11:20:22;101557.00;;;29.60;48.03
71791;BME280;59638;52.126;5.434;2023-05-22T11:22:59;101568.69;;;30.27;48.46
71791;BME280;59638;52.126;5.434;2023-05-22T11:25:26;101556.13;;;30.48;45.00
71791;BME280;59638;52.126;5.434;2023-05-22T11:27:54;101551.88;;;31.01;44.81
71791;BME280;59638;52.126;5.434;2023-05-22T11:30:25;101557.16;;;32.04;43.11
71791;BME280;59638;52.126;5.434;2023-05-22T11:32:52;101544.13;;;32.16;43.12
71791;BME280;59638;52.126;5.434;2023-05-22T11:35:20;101544.41;;;31.78;45.68
71791;BME280;59638;52.126;5.434;2023-05-22T11:37:48;101549.72;;;31.57;42.53
71791;BME280;59638;52.126;5.434;2023-05-22T11:40:16;101540.34;;;31.48;44.14
71791;BME280;59638;52.126;5.434;2023-05-22T11:42:43;101547.50;;;30.56;44.40
71791;BME280;59638;52.126;5.434;2023-05-22T11:45:10;101540.84;;;29.87;46.93
71791;BME280;59638;52.126;5.434;2023-05-22T11:47:37;101542.78;;;30.25;43.80
71791;BME280;59638;52.126;5.434;2023-05-22T11:50:04;101542.06;;;30.13;44.58
71791;BME280;59638;52.126;5.434;2023-05-22T11:52:33;101542.00;;;29.57;45.68
71791;BME280;59638;52.126;5.434;2023-05-22T11:54:59;101541.53;;;28.75;45.28
71791;BME280;59638;52.126;5.434;2023-05-22T11:57:26;101531.72;;;28.33;48.05
71791;BME280;59638;52.126;5.434;2023-05-22T11:59:53;101534.75;;;28.49;47.72
71791;BME280;59638;52.126;5.434;2023-05-22T12:02:20;101530.66;;;28.34;49.35
71791;BME280;59638;52.126;5.434;2023-05-22T12:04:46;101540.09;;;28.72;49.45
71791;BME280;59638;52.126;5.434;2023-05-22T12:07:13;101538.47;;;28.71;49.80
71791;BME280;59638;52.126;5.434;2023-05-22T12:09:40;101534.50;;;28.62;45.76
71791;BME280;59638;52.126;5.434;2023-05-22T12:12:10;101533.00;;;28.42;50.42
71791;BME280;59638;52.126;5.434;2023-05-22T12:14:37;101540.03;;;28.67;45.51
71791;BME280;59638;52.126;5.434;2023-05-22T12:17:03;101535.75;;;28.71;46.14
71791;BME280;59638;52.126;5.434;2023-05-22T12:19:30;101540.78;;;28.51;50.18
71791;BME280;59638;52.126;5.434;2023-05-22T12:21:57;101542.22;;;27.29;53.30
71791;BME280;59638;52.126;5.434;2023-05-22T12:24:24;101535.47;;;26.90;53.55
71791;BME280;59638;52.126;5.434;2023-05-22T12:26:54;101537.72;;;27.23;52.49
71791;BME280;59638;52.126;5.434;2023-05-22T12:29:22;101540.09;;;27.31;54.51
71791;BME280;59638;52.126;5.434;2023-05-22T12:31:49;101542.28;;;27.53;56.00
71791;BME280;59638;52.126;5.434;2023-05-22T12:34:16;101537.72;;;28.47;49.02
71791;BME280;59638;52.126;5.434;2023-05-22T12:36:47;101538.06;;;28.51;49.22
71791;BME280;59638;52.126;5.434;2023-05-22T12:39:17;101532.13;;;27.36;50.23
71791;BME280;59638;52.126;5.434;2023-05-22T12:41:44;101527.03;;;26.50;56.07
71791;BME280;59638;52.126;5.434;2023-05-22T12:44:13;101530.91;;;25.67;58.62
71791;BME280;59638;52.126;5.434;2023-05-22T12:46:40;101527.38;;;25.10;60.26
71791;BME280;59638;52.126;5.434;2023-05-22T12:49:07;101527.81;;;24.56;63.35
71791;BME280;59638;52.126;5.434;2023-05-22T12:51:34;101533.47;;;24.28;64.33
71791;BME280;59638;52.126;5.434;2023-05-22T12:54:01;101533.19;;;25.07;60.87
71791;BME280;59638;52.126;5.434;2023-05-22T12:56:28;101532.41;;;24.93;61.87
71791;BME280;59638;52.126;5.434;2023-05-22T12:58:56;101529.88;;;24.60;61.60
71791;BME280;59638;52.126;5.434;2023-05-22T13:01:23;101535.31;;;24.99;60.67
71791;BME280;59638;52.126;5.434;2023-05-22T13:03:51;101534.00;;;25.71;57.45
71791;BME280;59638;52.126;5.434;2023-05-22T13:06:18;101540.66;;;25.68;59.48
71791;BME280;59638;52.126;5.434;2023-05-22T13:08:45;101557.53;;;25.39;63.79
71791;BME280;59638;52.126;5.434;2023-05-22T13:11:11;101548.75;;;24.60;65.04
71791;BME280;59638;52.126;5.434;2023-05-22T13:13:38;101554.69;;;24.18;66.84